sensor_id;sensor_type;location;lat;lon;timestamp;P1;durP1;ratioP1;P2;durP2;ratioP2
50683;SDS011;36654;45.042;38.994;2023-03-03T00:00:12;20.13;;;8.90;;
50683;SDS011;36654;45.042;38.994;2023-03-03T00:02:38;14.88;;;7.55;;
50683;SDS011;36654;45.042;38.994;2023-03-03T00:05:05;17.48;;;8.52;;
50683;SDS011;36654;45.042;38.994;2023-03-03T00:07:31;17.23;;;8.35;;
50683;SDS011;36654;45.042;38.994;2023-03-03T00:09:57;15.05;;;7.85;;
50683;SDS011;36654;45.042;38.994;2023-03-03T00:12:27;15.65;;;7.28;;
50683;SDS011;36654;45.042;38.994;2023-03-03T00:14:54;18.52;;;7.85;;
50683;SDS011;36654;45.042;38.994;2023-03-03T00:17:21;21.73;;;11.50;;
50683;SDS011;36654;45.042;38.994;2023-03-03T00:19:52;17.90;;;9.45;;
50683;SDS011;36654;45.042;38.994;2023-03-03T00:22:28;18.95;;;8.32;;
50683;SDS011;36654;45.042;38.994;2023-03-03T00:24:59;30.48;;;12.60;;
50683;SDS011;36654;45.042;38.994;2023-03-03T00:27:45;74.80;;;16.67;;
50683;SDS011;36654;45.042;38.994;2023-03-03T00:30:19;71.07;;;18.42;;
50683;SDS011;36654;45.042;38.994;2023-03-03T00:32:55;40.35;;;13.93;;
50683;SDS011;36654;45.042;38.994;2023-03-03T00:38:00;37.60;;;13.65;;
50683;SDS011;36654;45.042;38.994;2023-03-03T00:40:35;70.88;;;18.42;;
50683;SDS011;36654;45.042;38.994;2023-03-03T00:43:24;42.30;;;15.02;;
50683;SDS011;36654;45.042;38.994;2023-03-03T00:45:56;36.90;;;14.40;;
50683;SDS011;36654;45.042;38.994;2023-03-03T00:48:41;25.48;;;13.23;;
50683;SDS011;36654;45.042;38.994;2023-03-03T00:51:41;33.10;;;15.60;;
50683;SDS011;36654;45.042;38.994;2023-03-03T00:53:59;28.58;;;14.98;;
50683;SDS011;36654;45.042;38.994;2023-03-03T00:56:25;28.27;;;13.60;;
50683;SDS011;36654;45.042;38.994;2023-03-03T00:58:52;37.42;;;14.32;;
50683;SDS011;36654;45.042;38.994;2023-03-03T01:01:18;35.45;;;17.63;;
50683;SDS011;36654;45.042;38.994;2023-03-03T01:03:44;30.65;;;15.98;;
50683;SDS011;36654;45.042;38.994;2023-03-03T01:06:10;33.58;;;15.30;;
50683;SDS011;36654;45.042;38.994;2023-03-03T01:08:36;33.88;;;16.40;;
50683;SDS011;36654;45.042;38.994;2023-03-03T01:11:03;38.25;;;15.70;;
50683;SDS011;36654;45.042;38.994;2023-03-03T01:13:52;33.33;;;15.45;;
50683;SDS011;36654;45.042;38.994;2023-03-03T01:16:18;30.30;;;15.50;;
50683;SDS011;36654;45.042;38.994;2023-03-03T01:18:44;32.65;;;14.43;;
50683;SDS011;36654;45.042;38.994;2023-03-03T01:21:11;23.33;;;12.82;;
50683;SDS011;36654;45.042;38.994;2023-03-03T01:23:37;24.13;;;11.77;;
50683;SDS011;36654;45.042;38.994;2023-03-03T01:26:03;25.80;;;13.55;;
50683;SDS011;36654;45.042;38.994;2023-03-03T01:28:29;30.10;;;13.05;;
50683;SDS011;36654;45.042;38.994;2023-03-03T01:30:59;28.85;;;13.23;;
50683;SDS011;36654;45.042;38.994;2023-03-03T01:33:26;25.25;;;13.70;;
50683;SDS011;36654;45.042;38.994;2023-03-03T01:35:52;28.80;;;13.32;;
50683;SDS011;36654;45.042;38.994;2023-03-03T01:38:17;24.42;;;12.80;;
50683;SDS011;36654;45.042;38.994;2023-03-03T01:40:50;32.83;;;13.50;;
50683;SDS011;36654;45.042;38.994;2023-03-03T01:43:17;30.90;;;15.30;;
50683;SDS011;36654;45.042;38.994;2023-03-03T01:48:22;40.95;;;18.67;;
50683;SDS011;36654;45.042;38.994;2023-03-03T01:51:00;42.45;;;18.35;;
50683;SDS011;36654;45.042;38.994;2023-03-03T01:53:33;43.92;;;18.42;;
50683;SDS011;36654;45.042;38.994;2023-03-03T01:55:59;34.78;;;18.00;;
50683;SDS011;36654;45.042;38.994;2023-03-03T01:58:28;30.45;;;17.15;;
50683;SDS011;36654;45.042;38.994;2023-03-03T02:00:58;37.78;;;18.35;;
50683;SDS011;36654;45.042;38.994;2023-03-03T02:03:27;33.50;;;17.50;;
50683;SDS011;36654;45.042;38.994;2023-03-03T02:05:56;37.65;;;17.77;;
50683;SDS011;36654;45.042;38.994;2023-03-03T02:08:29;39.58;;;18.30;;
50683;SDS011;36654;45.042;38.994;2023-03-03T02:11:02;32.90;;;17.27;;
50683;SDS011;36654;45.042;38.994;2023-03-03T02:13:30;36.92;;;17.45;;
50683;SDS011;36654;45.042;38.994;2023-03-03T02:15:55;35.17;;;18.67;;
50683;SDS011;36654;45.042;38.994;2023-03-03T02:18:21;34.60;;;18.15;;
50683;SDS011;36654;45.042;38.994;2023-03-03T02:23:23;42.50;;;17.88;;
50683;SDS011;36654;45.042;38.994;2023-03-03T02:26:09;35.45;;;19.33;;
50683;SDS011;36654;45.042;38.994;2023-03-03T02:28:38;32.33;;;18.13;;
50683;SDS011;36654;45.042;38.994;2023-03-03T02:31:06;40.67;;;17.73;;
50683;SDS011;36654;45.042;38.994;2023-03-03T02:33:40;33.20;;;17.52;;
50683;SDS011;36654;45.042;38.994;2023-03-03T02:36:14;38.00;;;18.52;;
50683;SDS011;36654;45.042;38.994;2023-03-03T02:38:43;34.88;;;18.70;;
50683;SDS011;36654;45.042;38.994;2023-03-03T02:44:16;37.80;;;16.92;;
50683;SDS011;36654;45.042;38.994;2023-03-03T02:46:44;32.60;;;16.35;;
50683;SDS011;36654;45.042;38.994;2023-03-03T02:49:12;48.40;;;20.85;;
50683;SDS011;36654;45.042;38.994;2023-03-03T02:51:44;39.65;;;19.70;;
50683;SDS011;36654;45.042;38.994;2023-03-03T02:54:10;37.90;;;20.55;;
50683;SDS011;36654;45.042;38.994;2023-03-03T02:56:37;39.28;;;19.83;;
50683;SDS011;36654;45.042;38.994;2023-03-03T02:59:03;44.83;;;21.20;;
50683;SDS011;36654;45.042;38.994;2023-03-03T03:01:29;86.40;;;24.92;;
50683;SDS011;36654;45.042;38.994;2023-03-03T03:04:01;91.22;;;25.15;;
50683;SDS011;36654;45.042;38.994;2023-03-03T03:06:37;63.50;;;23.23;;
50683;SDS011;36654;45.042;38.994;2023-03-03T03:09:03;58.17;;;22.63;;
50683;SDS011;36654;45.042;38.994;2023-03-03T03:11:29;82.60;;;31.13;;
50683;SDS011;36654;45.042;38.994;2023-03-03T03:13:55;89.15;;;34.47;;
50683;SDS011;36654;45.042;38.994;2023-03-03T03:16:21;70.45;;;29.58;;
50683;SDS011;36654;45.042;38.994;2023-03-03T03:18:46;107.15;;;36.28;;
50683;SDS011;36654;45.042;38.994;2023-03-03T03:21:14;64.00;;;27.67;;
50683;SDS011;36654;45.042;38.994;2023-03-03T03:23:41;54.75;;;26.23;;
50683;SDS011;36654;45.042;38.994;2023-03-03T03:26:07;57.97;;;24.95;;
50683;SDS011;36654;45.042;38.994;2023-03-03T03:28:32;49.80;;;21.35;;
50683;SDS011;36654;45.042;38.994;2023-03-03T03:30:59;60.28;;;23.58;;
50683;SDS011;36654;45.042;38.994;2023-03-03T03:33:24;60.30;;;23.80;;
50683;SDS011;36654;45.042;38.994;2023-03-03T03:35:52;51.85;;;20.02;;
50683;SDS011;36654;45.042;38.994;2023-03-03T03:38:20;47.85;;;20.40;;
50683;SDS011;36654;45.042;38.994;2023-03-03T03:40:46;74.65;;;25.63;;
50683;SDS011;36654;45.042;38.994;2023-03-03T03:43:12;70.70;;;30.10;;
50683;SDS011;36654;45.042;38.994;2023-03-03T03:45:38;69.20;;;25.50;;
50683;SDS011;36654;45.042;38.994;2023-03-03T03:48:06;46.97;;;22.52;;
50683;SDS011;36654;45.042;38.994;2023-03-03T03:50:31;56.17;;;23.63;;
50683;SDS011;36654;45.042;38.994;2023-03-03T03:52:57;54.15;;;24.30;;
50683;SDS011;36654;45.042;38.994;2023-03-03T03:55:22;40.92;;;20.85;;
50683;SDS011;36654;45.042;38.994;2023-03-03T03:57:48;42.78;;;20.45;;
50683;SDS011;36654;45.042;38.994;2023-03-03T04:00:14;43.08;;;18.20;;
50683;SDS011;36654;45.042;38.994;2023-03-03T04:02:39;52.90;;;20.42;;
50683;SDS011;36654;45.042;38.994;2023-03-03T04:05:05;48.03;;;19.73;;
50683;SDS011;36654;45.042;38.994;2023-03-03T04:07:32;44.67;;;18.58;;
50683;SDS011;36654;45.042;38.994;2023-03-03T04:09:58;36.20;;;19.15;;
50683;SDS011;36654;45.042;38.994;2023-03-03T04:12:24;43.10;;;20.13;;
50683;SDS011;36654;45.042;38.994;2023-03-03T04:14:49;33.67;;;19.38;;
50683;SDS011;36654;45.042;38.994;2023-03-03T04:17:16;41.55;;;20.38;;
50683;SDS011;36654;45.042;38.994;2023-03-03T04:19:45;44.90;;;21.20;;
50683;SDS011;36654;45.042;38.994;2023-03-03T04:22:11;47.15;;;20.30;;
50683;SDS011;36654;45.042;38.994;2023-03-03T04:24:38;47.60;;;21.80;;
50683;SDS011;36654;45.042;38.994;2023-03-03T04:27:04;44.65;;;22.40;;
50683;SDS011;36654;45.042;38.994;2023-03-03T04:29:30;43.95;;;21.38;;
50683;SDS011;36654;45.042;38.994;2023-03-03T04:31:56;46.53;;;22.27;;
50683;SDS011;36654;45.042;38.994;2023-03-03T04:34:22;51.38;;;20.98;;
50683;SDS011;36654;45.042;38.994;2023-03-03T04:36:48;52.45;;;22.23;;
50683;SDS011;36654;45.042;38.994;2023-03-03T04:39:13;46.88;;;20.42;;
50683;SDS011;36654;45.042;38.994;2023-03-03T04:41:39;53.25;;;22.20;;
50683;SDS011;36654;45.042;38.994;2023-03-03T04:44:04;52.03;;;20.95;;
50683;SDS011;36654;45.042;38.994;2023-03-03T04:46:30;49.63;;;22.88;;
50683;SDS011;36654;45.042;38.994;2023-03-03T04:48:56;41.10;;;22.17;;
50683;SDS011;36654;45.042;38.994;2023-03-03T04:51:21;52.85;;;23.95;;
50683;SDS011;36654;45.042;38.994;2023-03-03T04:53:47;44.28;;;20.83;;
50683;SDS011;36654;45.042;38.994;2023-03-03T04:56:13;43.13;;;20.92;;
50683;SDS011;36654;45.042;38.994;2023-03-03T04:58:39;47.00;;;21.85;;
50683;SDS011;36654;45.042;38.994;2023-03-03T05:01:04;45.63;;;21.60;;
50683;SDS011;36654;45.042;38.994;2023-03-03T05:03:30;45.90;;;21.98;;
50683;SDS011;36654;45.042;38.994;2023-03-03T05:05:56;47.60;;;21.73;;
50683;SDS011;36654;45.042;38.994;2023-03-03T05:08:22;44.47;;;21.27;;
50683;SDS011;36654;45.042;38.994;2023-03-03T05:10:51;47.30;;;21.40;;
50683;SDS011;36654;45.042;38.994;2023-03-03T05:13:18;41.45;;;19.75;;
50683;SDS011;36654;45.042;38.994;2023-03-03T05:15:47;53.65;;;20.50;;
50683;SDS011;36654;45.042;38.994;2023-03-03T05:18:14;40.40;;;20.70;;
50683;SDS011;36654;45.042;38.994;2023-03-03T05:20:40;43.38;;;19.23;;
50683;SDS011;36654;45.042;38.994;2023-03-03T05:23:06;35.03;;;18.30;;
50683;SDS011;36654;45.042;38.994;2023-03-03T05:25:31;41.80;;;21.02;;
50683;SDS011;36654;45.042;38.994;2023-03-03T05:27:57;48.05;;;20.95;;
50683;SDS011;36654;45.042;38.994;2023-03-03T05:30:23;43.63;;;21.20;;
50683;SDS011;36654;45.042;38.994;2023-03-03T05:32:48;43.17;;;21.05;;
50683;SDS011;36654;45.042;38.994;2023-03-03T05:35:14;44.58;;;22.52;;
50683;SDS011;36654;45.042;38.994;2023-03-03T05:37:40;48.30;;;21.08;;
50683;SDS011;36654;45.042;38.994;2023-03-03T05:40:11;40.58;;;18.63;;
50683;SDS011;36654;45.042;38.994;2023-03-03T05:42:37;44.03;;;21.05;;
50683;SDS011;36654;45.042;38.994;2023-03-03T05:45:02;50.22;;;20.35;;
50683;SDS011;36654;45.042;38.994;2023-03-03T05:47:28;48.80;;;22.23;;
50683;SDS011;36654;45.042;38.994;2023-03-03T05:49:54;41.88;;;22.17;;
50683;SDS011;36654;45.042;38.994;2023-03-03T05:52:19;47.17;;;23.65;;
50683;SDS011;36654;45.042;38.994;2023-03-03T05:54:45;42.30;;;22.20;;
50683;SDS011;36654;45.042;38.994;2023-03-03T05:57:11;51.08;;;22.23;;
50683;SDS011;36654;45.042;38.994;2023-03-03T05:59:37;55.03;;;25.23;;
50683;SDS011;36654;45.042;38.994;2023-03-03T06:02:02;58.03;;;23.73;;
50683;SDS011;36654;45.042;38.994;2023-03-03T06:04:28;49.65;;;22.67;;
50683;SDS011;36654;45.042;38.994;2023-03-03T06:06:54;50.72;;;23.20;;
50683;SDS011;36654;45.042;38.994;2023-03-03T06:09:19;51.28;;;23.02;;
50683;SDS011;36654;45.042;38.994;2023-03-03T06:11:45;49.92;;;22.05;;
50683;SDS011;36654;45.042;38.994;2023-03-03T06:14:11;46.70;;;22.52;;
50683;SDS011;36654;45.042;38.994;2023-03-03T06:16:36;59.13;;;25.05;;
50683;SDS011;36654;45.042;38.994;2023-03-03T06:19:02;61.13;;;28.15;;
50683;SDS011;36654;45.042;38.994;2023-03-03T06:21:30;56.55;;;25.25;;
50683;SDS011;36654;45.042;38.994;2023-03-03T06:23:56;50.00;;;22.90;;
50683;SDS011;36654;45.042;38.994;2023-03-03T06:26:21;40.13;;;19.05;;
50683;SDS011;36654;45.042;38.994;2023-03-03T06:28:47;49.38;;;21.67;;
50683;SDS011;36654;45.042;38.994;2023-03-03T06:31:14;40.13;;;19.50;;
50683;SDS011;36654;45.042;38.994;2023-03-03T06:33:40;31.58;;;16.60;;
50683;SDS011;36654;45.042;38.994;2023-03-03T06:36:08;26.63;;;14.18;;
50683;SDS011;36654;45.042;38.994;2023-03-03T06:38:35;30.75;;;14.40;;
50683;SDS011;36654;45.042;38.994;2023-03-03T06:41:00;29.42;;;15.18;;
50683;SDS011;36654;45.042;38.994;2023-03-03T06:43:28;32.03;;;15.65;;
50683;SDS011;36654;45.042;38.994;2023-03-03T06:45:54;31.02;;;15.93;;
50683;SDS011;36654;45.042;38.994;2023-03-03T06:48:19;30.38;;;16.40;;
50683;SDS011;36654;45.042;38.994;2023-03-03T06:50:45;37.13;;;16.23;;
50683;SDS011;36654;45.042;38.994;2023-03-03T06:53:11;29.45;;;14.40;;
50683;SDS011;36654;45.042;38.994;2023-03-03T06:55:41;28.63;;;15.82;;
50683;SDS011;36654;45.042;38.994;2023-03-03T06:58:12;37.80;;;16.67;;
50683;SDS011;36654;45.042;38.994;2023-03-03T07:00:43;35.78;;;17.88;;
50683;SDS011;36654;45.042;38.994;2023-03-03T07:05:38;34.08;;;16.83;;
50683;SDS011;36654;45.042;38.994;2023-03-03T07:08:17;29.05;;;17.27;;
50683;SDS011;36654;45.042;38.994;2023-03-03T07:10:44;34.80;;;17.40;;
50683;SDS011;36654;45.042;38.994;2023-03-03T07:13:18;29.50;;;17.67;;
50683;SDS011;36654;45.042;38.994;2023-03-03T07:15:44;34.30;;;17.77;;
50683;SDS011;36654;45.042;38.994;2023-03-03T07:21:25;39.78;;;19.10;;
50683;SDS011;36654;45.042;38.994;2023-03-03T07:24:18;35.10;;;18.27;;
50683;SDS011;36654;45.042;38.994;2023-03-03T07:26:51;32.17;;;18.80;;
50683;SDS011;36654;45.042;38.994;2023-03-03T07:31:47;29.35;;;16.30;;
50683;SDS011;36654;45.042;38.994;2023-03-03T07:34:20;32.58;;;16.58;;
50683;SDS011;36654;45.042;38.994;2023-03-03T07:36:54;31.90;;;16.27;;
50683;SDS011;36654;45.042;38.994;2023-03-03T07:44:51;33.30;;;15.38;;
50683;SDS011;36654;45.042;38.994;2023-03-03T07:47:19;29.90;;;16.50;;
50683;SDS011;36654;45.042;38.994;2023-03-03T07:49:48;29.05;;;16.73;;
50683;SDS011;36654;45.042;38.994;2023-03-03T07:52:38;27.92;;;15.00;;
50683;SDS011;36654;45.042;38.994;2023-03-03T07:58:05;27.15;;;15.43;;
50683;SDS011;36654;45.042;38.994;2023-03-03T08:03:55;33.17;;;15.85;;
50683;SDS011;36654;45.042;38.994;2023-03-03T08:14:35;28.83;;;15.82;;
50683;SDS011;36654;45.042;38.994;2023-03-03T08:19:41;25.33;;;14.90;;
50683;SDS011;36654;45.042;38.994;2023-03-03T08:25:02;30.15;;;15.48;;
50683;SDS011;36654;45.042;38.994;2023-03-03T08:27:28;27.02;;;14.40;;
50683;SDS011;36654;45.042;38.994;2023-03-03T08:29:53;28.88;;;15.63;;
50683;SDS011;36654;45.042;38.994;2023-03-03T08:32:19;28.85;;;16.50;;
50683;SDS011;36654;45.042;38.994;2023-03-03T08:34:44;29.17;;;15.68;;
50683;SDS011;36654;45.042;38.994;2023-03-03T08:37:10;30.75;;;15.93;;
50683;SDS011;36654;45.042;38.994;2023-03-03T08:39:35;30.42;;;16.10;;
50683;SDS011;36654;45.042;38.994;2023-03-03T08:42:01;29.95;;;16.92;;
50683;SDS011;36654;45.042;38.994;2023-03-03T08:44:26;26.15;;;15.52;;
50683;SDS011;36654;45.042;38.994;2023-03-03T08:46:52;29.02;;;15.07;;
50683;SDS011;36654;45.042;38.994;2023-03-03T08:49:18;28.27;;;15.15;;
50683;SDS011;36654;45.042;38.994;2023-03-03T08:51:43;23.95;;;14.63;;
50683;SDS011;36654;45.042;38.994;2023-03-03T08:54:09;34.85;;;14.88;;
50683;SDS011;36654;45.042;38.994;2023-03-03T08:56:35;28.60;;;15.00;;
50683;SDS011;36654;45.042;38.994;2023-03-03T08:59:00;26.60;;;14.68;;
50683;SDS011;36654;45.042;38.994;2023-03-03T09:01:26;22.92;;;13.52;;
50683;SDS011;36654;45.042;38.994;2023-03-03T09:03:51;26.02;;;14.70;;
50683;SDS011;36654;45.042;38.994;2023-03-03T09:06:17;27.83;;;13.77;;
50683;SDS011;36654;45.042;38.994;2023-03-03T09:08:43;30.00;;;14.93;;
50683;SDS011;36654;45.042;38.994;2023-03-03T09:11:11;28.35;;;13.75;;
50683;SDS011;36654;45.042;38.994;2023-03-03T09:13:38;23.55;;;13.70;;
50683;SDS011;36654;45.042;38.994;2023-03-03T09:16:14;28.58;;;14.07;;
50683;SDS011;36654;45.042;38.994;2023-03-03T09:18:40;26.90;;;13.82;;
50683;SDS011;36654;45.042;38.994;2023-03-03T09:21:23;22.25;;;12.68;;
50683;SDS011;36654;45.042;38.994;2023-03-03T09:23:57;23.42;;;13.45;;
50683;SDS011;36654;45.042;38.994;2023-03-03T09:26:28;25.50;;;13.98;;
50683;SDS011;36654;45.042;38.994;2023-03-03T09:31:43;28.13;;;13.27;;
50683;SDS011;36654;45.042;38.994;2023-03-03T09:34:22;24.60;;;13.05;;
50683;SDS011;36654;45.042;38.994;2023-03-03T09:39:57;22.95;;;11.57;;
50683;SDS011;36654;45.042;38.994;2023-03-03T09:48:41;31.92;;;14.57;;
50683;SDS011;36654;45.042;38.994;2023-03-03T09:59:23;30.90;;;15.68;;
50683;SDS011;36654;45.042;38.994;2023-03-03T10:04:58;26.70;;;13.90;;
50683;SDS011;36654;45.042;38.994;2023-03-03T10:12:47;27.27;;;14.35;;
50683;SDS011;36654;45.042;38.994;2023-03-03T10:18:27;33.25;;;14.73;;
50683;SDS011;36654;45.042;38.994;2023-03-03T10:29:23;25.08;;;12.52;;
50683;SDS011;36654;45.042;38.994;2023-03-03T10:35:14;27.67;;;14.23;;
50683;SDS011;36654;45.042;38.994;2023-03-03T10:46:47;21.02;;;12.15;;
50683;SDS011;36654;45.042;38.994;2023-03-03T10:54:59;26.67;;;14.02;;
50683;SDS011;36654;45.042;38.994;2023-03-03T11:00:24;26.35;;;14.25;;
50683;SDS011;36654;45.042;38.994;2023-03-03T11:06:01;25.73;;;12.60;;
50683;SDS011;36654;45.042;38.994;2023-03-03T11:11:20;27.10;;;14.30;;
50683;SDS011;36654;45.042;38.994;2023-03-03T11:16:40;25.23;;;13.63;;
50683;SDS011;36654;45.042;38.994;2023-03-03T11:24:26;27.73;;;14.02;;
50683;SDS011;36654;45.042;38.994;2023-03-03T11:30:23;23.77;;;13.95;;
50683;SDS011;36654;45.042;38.994;2023-03-03T11:33:43;28.15;;;15.27;;
50683;SDS011;36654;45.042;38.994;2023-03-03T11:36:35;28.00;;;13.93;;
50683;SDS011;36654;45.042;38.994;2023-03-03T11:39:15;31.55;;;14.82;;
50683;SDS011;36654;45.042;38.994;2023-03-03T11:41:52;23.20;;;14.20;;
50683;SDS011;36654;45.042;38.994;2023-03-03T11:50:20;21.88;;;13.45;;
50683;SDS011;36654;45.042;38.994;2023-03-03T11:55:29;23.20;;;12.10;;
50683;SDS011;36654;45.042;38.994;2023-03-03T12:03:30;21.45;;;11.82;;
50683;SDS011;36654;45.042;38.994;2023-03-03T12:06:01;24.38;;;11.77;;
50683;SDS011;36654;45.042;38.994;2023-03-03T12:11:16;19.63;;;10.13;;
50683;SDS011;36654;45.042;38.994;2023-03-03T12:21:41;19.98;;;9.52;;
50683;SDS011;36654;45.042;38.994;2023-03-03T12:34:00;16.35;;;9.63;;
50683;SDS011;36654;45.042;38.994;2023-03-03T13:03:56;17.67;;;8.43;;
50683;SDS011;36654;45.042;38.994;2023-03-03T13:11:54;17.23;;;7.53;;
50683;SDS011;36654;45.042;38.994;2023-03-03T13:14:51;16.88;;;7.72;;
50683;SDS011;36654;45.042;38.994;2023-03-03T13:17:24;16.20;;;7.60;;
50683;SDS011;36654;45.042;38.994;2023-03-03T13:19:56;13.98;;;7.25;;
50683;SDS011;36654;45.042;38.994;2023-03-03T13:25:32;13.15;;;6.90;;
50683;SDS011;36654;45.042;38.994;2023-03-03T13:30:46;12.38;;;6.68;;
50683;SDS011;36654;45.042;38.994;2023-03-03T13:33:27;14.80;;;6.60;;
50683;SDS011;36654;45.042;38.994;2023-03-03T13:36:11;17.35;;;6.57;;
50683;SDS011;36654;45.042;38.994;2023-03-03T13:38:39;9.65;;;5.82;;
50683;SDS011;36654;45.042;38.994;2023-03-03T13:41:34;15.98;;;6.28;;
50683;SDS011;36654;45.042;38.994;2023-03-03T13:44:17;13.32;;;5.90;;
50683;SDS011;36654;45.042;38.994;2023-03-03T13:49:30;13.40;;;6.90;;
50683;SDS011;36654;45.042;38.994;2023-03-03T13:52:06;17.42;;;7.70;;
50683;SDS011;36654;45.042;38.994;2023-03-03T13:57:24;13.38;;;6.97;;
50683;SDS011;36654;45.042;38.994;2023-03-03T14:02:46;12.68;;;6.38;;
50683;SDS011;36654;45.042;38.994;2023-03-03T14:05:47;14.85;;;6.80;;
50683;SDS011;36654;45.042;38.994;2023-03-03T14:10:47;16.88;;;7.68;;
50683;SDS011;36654;45.042;38.994;2023-03-03T14:13:20;15.57;;;7.75;;
50683;SDS011;36654;45.042;38.994;2023-03-03T14:21:13;15.68;;;8.75;;
50683;SDS011;36654;45.042;38.994;2023-03-03T14:26:46;21.42;;;9.15;;
50683;SDS011;36654;45.042;38.994;2023-03-03T14:31:54;17.98;;;8.85;;
50683;SDS011;36654;45.042;38.994;2023-03-03T14:34:40;20.65;;;9.15;;
50683;SDS011;36654;45.042;38.994;2023-03-03T14:37:24;17.88;;;9.82;;
50683;SDS011;36654;45.042;38.994;2023-03-03T14:42:37;18.45;;;10.40;;
50683;SDS011;36654;45.042;38.994;2023-03-03T14:47:56;16.90;;;9.27;;
50683;SDS011;36654;45.042;38.994;2023-03-03T14:53:05;32.55;;;10.18;;
50683;SDS011;36654;45.042;38.994;2023-03-03T14:55:36;21.92;;;11.10;;
50683;SDS011;36654;45.042;38.994;2023-03-03T15:00:47;18.00;;;10.07;;
50683;SDS011;36654;45.042;38.994;2023-03-03T15:06:09;18.88;;;9.23;;
50683;SDS011;36654;45.042;38.994;2023-03-03T15:08:41;17.15;;;9.38;;
50683;SDS011;36654;45.042;38.994;2023-03-03T15:11:26;18.98;;;8.68;;
50683;SDS011;36654;45.042;38.994;2023-03-03T15:14:14;21.55;;;9.77;;
50683;SDS011;36654;45.042;38.994;2023-03-03T15:16:42;16.90;;;8.43;;
50683;SDS011;36654;45.042;38.994;2023-03-03T15:21:57;16.75;;;8.57;;
50683;SDS011;36654;45.042;38.994;2023-03-03T15:24:41;18.05;;;9.48;;
50683;SDS011;36654;45.042;38.994;2023-03-03T15:27:27;18.90;;;8.60;;
50683;SDS011;36654;45.042;38.994;2023-03-03T15:30:14;17.98;;;8.70;;
50683;SDS011;36654;45.042;38.994;2023-03-03T15:32:47;15.27;;;8.18;;
50683;SDS011;36654;45.042;38.994;2023-03-03T15:43:05;23.08;;;10.40;;
50683;SDS011;36654;45.042;38.994;2023-03-03T15:45:47;25.00;;;11.00;;
50683;SDS011;36654;45.042;38.994;2023-03-03T15:56:43;30.80;;;15.77;;
50683;SDS011;36654;45.042;38.994;2023-03-03T16:04:47;25.20;;;13.55;;
50683;SDS011;36654;45.042;38.994;2023-03-03T16:10:31;24.40;;;12.90;;
50683;SDS011;36654;45.042;38.994;2023-03-03T16:13:29;21.73;;;13.52;;
50683;SDS011;36654;45.042;38.994;2023-03-03T16:23:46;22.60;;;11.68;;
50683;SDS011;36654;45.042;38.994;2023-03-03T16:29:17;23.92;;;10.93;;
50683;SDS011;36654;45.042;38.994;2023-03-03T16:32:09;25.17;;;12.13;;
50683;SDS011;36654;45.042;38.994;2023-03-03T16:35:00;24.35;;;11.70;;
50683;SDS011;36654;45.042;38.994;2023-03-03T16:37:50;21.55;;;11.98;;
50683;SDS011;36654;45.042;38.994;2023-03-03T16:40:22;29.30;;;12.48;;
50683;SDS011;36654;45.042;38.994;2023-03-03T16:42:58;23.27;;;13.65;;
50683;SDS011;36654;45.042;38.994;2023-03-03T16:45:32;30.33;;;14.73;;
50683;SDS011;36654;45.042;38.994;2023-03-03T16:56:38;29.25;;;14.15;;
50683;SDS011;36654;45.042;38.994;2023-03-03T17:04:44;29.90;;;16.63;;
50683;SDS011;36654;45.042;38.994;2023-03-03T17:12:53;30.40;;;17.33;;
50683;SDS011;36654;45.042;38.994;2023-03-03T17:15:52;40.13;;;17.27;;
50683;SDS011;36654;45.042;38.994;2023-03-03T17:24:40;30.05;;;16.25;;
50683;SDS011;36654;45.042;38.994;2023-03-03T17:27:09;35.05;;;18.35;;
50683;SDS011;36654;45.042;38.994;2023-03-03T17:29:49;35.15;;;17.33;;
50683;SDS011;36654;45.042;38.994;2023-03-03T17:38:15;33.95;;;16.05;;
50683;SDS011;36654;45.042;38.994;2023-03-03T17:43:29;25.45;;;14.77;;
50683;SDS011;36654;45.042;38.994;2023-03-03T17:46:08;28.02;;;15.30;;
50683;SDS011;36654;45.042;38.994;2023-03-03T17:54:38;25.13;;;13.90;;
50683;SDS011;36654;45.042;38.994;2023-03-03T17:57:33;34.85;;;14.38;;
50683;SDS011;36654;45.042;38.994;2023-03-03T18:14:08;23.73;;;12.13;;
50683;SDS011;36654;45.042;38.994;2023-03-03T18:32:40;16.70;;;9.43;;
50683;SDS011;36654;45.042;38.994;2023-03-03T18:37:50;21.38;;;11.25;;
50683;SDS011;36654;45.042;38.994;2023-03-03T18:40:34;25.08;;;10.80;;
50683;SDS011;36654;45.042;38.994;2023-03-03T18:48:54;20.08;;;10.77;;
50683;SDS011;36654;45.042;38.994;2023-03-03T18:53:59;16.95;;;8.90;;
50683;SDS011;36654;45.042;38.994;2023-03-03T18:57:17;20.35;;;8.98;;
50683;SDS011;36654;45.042;38.994;2023-03-03T19:04:55;19.27;;;8.80;;
50683;SDS011;36654;45.042;38.994;2023-03-03T19:12:55;18.95;;;9.05;;
50683;SDS011;36654;45.042;38.994;2023-03-03T19:20:51;12.85;;;7.43;;
50683;SDS011;36654;45.042;38.994;2023-03-03T19:31:32;14.18;;;7.50;;
50683;SDS011;36654;45.042;38.994;2023-03-03T19:34:04;15.82;;;8.50;;
50683;SDS011;36654;45.042;38.994;2023-03-03T19:40:02;14.70;;;8.18;;
50683;SDS011;36654;45.042;38.994;2023-03-03T19:48:22;19.27;;;8.27;;
50683;SDS011;36654;45.042;38.994;2023-03-03T20:15:29;35.50;;;16.67;;
50683;SDS011;36654;45.042;38.994;2023-03-03T20:26:49;23.15;;;13.05;;
50683;SDS011;36654;45.042;38.994;2023-03-03T20:43:37;25.95;;;14.27;;
50683;SDS011;36654;45.042;38.994;2023-03-03T20:49:03;25.50;;;14.70;;
50683;SDS011;36654;45.042;38.994;2023-03-03T20:54:07;27.05;;;15.75;;
50683;SDS011;36654;45.042;38.994;2023-03-03T20:56:42;27.15;;;14.93;;
50683;SDS011;36654;45.042;38.994;2023-03-03T20:59:34;23.98;;;14.32;;
50683;SDS011;36654;45.042;38.994;2023-03-03T21:04:34;25.77;;;14.45;;
50683;SDS011;36654;45.042;38.994;2023-03-03T21:07:00;28.40;;;14.95;;
50683;SDS011;36654;45.042;38.994;2023-03-03T21:09:35;24.52;;;14.48;;
50683;SDS011;36654;45.042;38.994;2023-03-03T21:12:25;25.77;;;15.18;;
50683;SDS011;36654;45.042;38.994;2023-03-03T21:15:02;23.15;;;13.88;;
50683;SDS011;36654;45.042;38.994;2023-03-03T21:17:31;25.63;;;13.70;;
50683;SDS011;36654;45.042;38.994;2023-03-03T21:23:02;22.65;;;13.20;;
50683;SDS011;36654;45.042;38.994;2023-03-03T21:28:11;23.38;;;13.57;;
50683;SDS011;36654;45.042;38.994;2023-03-03T21:31:05;23.75;;;14.73;;
50683;SDS011;36654;45.042;38.994;2023-03-03T21:33:39;22.73;;;13.07;;
50683;SDS011;36654;45.042;38.994;2023-03-03T21:36:08;21.88;;;14.13;;
50683;SDS011;36654;45.042;38.994;2023-03-03T21:38:36;21.45;;;13.63;;
50683;SDS011;36654;45.042;38.994;2023-03-03T21:41:03;25.05;;;14.55;;
50683;SDS011;36654;45.042;38.994;2023-03-03T21:43:48;24.52;;;14.70;;
50683;SDS011;36654;45.042;38.994;2023-03-03T21:46:19;22.92;;;14.23;;
50683;SDS011;36654;45.042;38.994;2023-03-03T21:48:46;27.60;;;16.92;;
50683;SDS011;36654;45.042;38.994;2023-03-03T21:51:13;27.77;;;18.02;;
50683;SDS011;36654;45.042;38.994;2023-03-03T21:53:39;31.58;;;18.80;;
50683;SDS011;36654;45.042;38.994;2023-03-03T21:56:06;29.83;;;19.10;;
50683;SDS011;36654;45.042;38.994;2023-03-03T21:58:32;29.73;;;19.00;;